sensor_id;sensor_type;location;lat;lon;timestamp;temperature;humidity
43043;DHT22;28667;50.758;6.096;2023-12-07T00:01:14;2.20;99.90
43043;DHT22;28667;50.758;6.096;2023-12-07T00:03:39;2.20;99.90
43043;DHT22;28667;50.758;6.096;2023-12-07T00:06:05;2.20;99.90
43043;DHT22;28667;50.758;6.096;2023-12-07T00:08:30;2.20;99.90
43043;DHT22;28667;50.758;6.096;2023-12-07T00:10:56;2.20;99.90
43043;DHT22;28667;50.758;6.096;2023-12-07T00:13:22;2.20;99.90
43043;DHT22;28667;50.758;6.096;2023-12-07T00:15:47;2.10;99.90
43043;DHT22;28667;50.758;6.096;2023-12-07T00:18:13;2.00;99.90
43043;DHT22;28667;50.758;6.096;2023-12-07T00:20:38;2.00;99.90
43043;DHT22;28667;50.758;6.096;2023-12-07T00:23:04;2.00;99.90
43043;DHT22;28667;50.758;6.096;2023-12-07T00:25:31;1.90;99.90
43043;DHT22;28667;50.758;6.096;2023-12-07T00:27:56;1.80;99.90
43043;DHT22;28667;50.758;6.096;2023-12-07T00:30:22;1.80;99.90
43043;DHT22;28667;50.758;6.096;2023-12-07T00:32:48;1.80;99.90
43043;DHT22;28667;50.758;6.096;2023-12-07T00:35:14;1.70;99.90
43043;DHT22;28667;50.758;6.096;2023-12-07T00:37:41;1.70;99.90
43043;DHT22;28667;50.758;6.096;2023-12-07T00:40:07;1.70;99.90
43043;DHT22;28667;50.758;6.096;2023-12-07T00:42:36;1.60;99.90
43043;DHT22;28667;50.758;6.096;2023-12-07T00:45:02;1.60;99.90
43043;DHT22;28667;50.758;6.096;2023-12-07T00:47:27;1.60;99.90
43043;DHT22;28667;50.758;6.096;2023-12-07T00:49:53;1.50;99.90
43043;DHT22;28667;50.758;6.096;2023-12-07T00:52:18;1.50;99.90
43043;DHT22;28667;50.758;6.096;2023-12-07T00:54:44;1.50;99.90
43043;DHT22;28667;50.758;6.096;2023-12-07T00:57:10;1.50;99.90
43043;DHT22;28667;50.758;6.096;2023-12-07T00:59:35;1.50;99.90
43043;DHT22;28667;50.758;6.096;2023-12-07T01:02:02;1.40;99.90
43043;DHT22;28667;50.758;6.096;2023-12-07T01:04:28;1.40;99.90
43043;DHT22;28667;50.758;6.096;2023-12-07T01:06:54;1.30;99.90
43043;DHT22;28667;50.758;6.096;2023-12-07T01:09:19;1.30;99.90
43043;DHT22;28667;50.758;6.096;2023-12-07T01:11:45;1.30;99.90
43043;DHT22;28667;50.758;6.096;2023-12-07T01:14:11;1.30;99.90
43043;DHT22;28667;50.758;6.096;2023-12-07T01:16:36;1.30;99.90
43043;DHT22;28667;50.758;6.096;2023-12-07T01:19:02;1.30;99.90
43043;DHT22;28667;50.758;6.096;2023-12-07T01:21:28;1.20;99.90
43043;DHT22;28667;50.758;6.096;2023-12-07T01:23:53;1.20;99.90
43043;DHT22;28667;50.758;6.096;2023-12-07T01:26:19;1.30;99.90
43043;DHT22;28667;50.758;6.096;2023-12-07T01:28:45;1.30;99.90
43043;DHT22;28667;50.758;6.096;2023-12-07T01:31:10;1.20;99.90
43043;DHT22;28667;50.758;6.096;2023-12-07T01:33:36;1.20;99.90
43043;DHT22;28667;50.758;6.096;2023-12-07T01:36:01;1.20;99.90
43043;DHT22;28667;50.758;6.096;2023-12-07T01:38:27;1.20;99.90
43043;DHT22;28667;50.758;6.096;2023-12-07T01:40:53;1.10;99.90
43043;DHT22;28667;50.758;6.096;2023-12-07T01:43:19;1.10;99.90
43043;DHT22;28667;50.758;6.096;2023-12-07T01:45:46;1.10;99.90
43043;DHT22;28667;50.758;6.096;2023-12-07T01:48:12;1.10;99.90
43043;DHT22;28667;50.758;6.096;2023-12-07T01:50:38;1.10;99.90
43043;DHT22;28667;50.758;6.096;2023-12-07T01:53:04;1.10;99.90
43043;DHT22;28667;50.758;6.096;2023-12-07T01:55:30;1.00;99.90
43043;DHT22;28667;50.758;6.096;2023-12-07T01:57:56;1.00;99.90
43043;DHT22;28667;50.758;6.096;2023-12-07T02:00:22;1.00;99.90
43043;DHT22;28667;50.758;6.096;2023-12-07T02:02:49;1.00;99.90
43043;DHT22;28667;50.758;6.096;2023-12-07T02:05:15;0.90;99.90
43043;DHT22;28667;50.758;6.096;2023-12-07T02:07:41;0.90;99.90
43043;DHT22;28667;50.758;6.096;2023-12-07T02:10:08;1.00;99.90
43043;DHT22;28667;50.758;6.096;2023-12-07T02:12:33;0.90;99.90
43043;DHT22;28667;50.758;6.096;2023-12-07T02:15:01;1.00;99.90
43043;DHT22;28667;50.758;6.096;2023-12-07T02:17:50;0.90;99.90
43043;DHT22;28667;50.758;6.096;2023-12-07T02:20:29;0.90;99.90
43043;DHT22;28667;50.758;6.096;2023-12-07T02:22:58;0.90;99.90
43043;DHT22;28667;50.758;6.096;2023-12-07T02:25:29;0.90;99.90
43043;DHT22;28667;50.758;6.096;2023-12-07T02:27:57;0.90;99.90
43043;DHT22;28667;50.758;6.096;2023-12-07T02:30:22;0.80;99.90
43043;DHT22;28667;50.758;6.096;2023-12-07T02:32:48;0.80;99.90
43043;DHT22;28667;50.758;6.096;2023-12-07T02:35:14;0.70;99.90
43043;DHT22;28667;50.758;6.096;2023-12-07T02:37:46;0.70;99.90
43043;DHT22;28667;50.758;6.096;2023-12-07T02:40:14;0.60;99.90
43043;DHT22;28667;50.758;6.096;2023-12-07T02:42:40;0.50;99.90
43043;DHT22;28667;50.758;6.096;2023-12-07T02:45:08;0.50;99.90
43043;DHT22;28667;50.758;6.096;2023-12-07T02:47:34;0.50;99.90
43043;DHT22;28667;50.758;6.096;2023-12-07T02:50:00;0.40;99.90
43043;DHT22;28667;50.758;6.096;2023-12-07T02:52:26;0.40;99.90
43043;DHT22;28667;50.758;6.096;2023-12-07T02:54:51;0.30;99.90
43043;DHT22;28667;50.758;6.096;2023-12-07T02:57:17;0.30;99.90
43043;DHT22;28667;50.758;6.096;2023-12-07T02:59:43;0.30;99.90
43043;DHT22;28667;50.758;6.096;2023-12-07T03:02:08;0.20;99.90
43043;DHT22;28667;50.758;6.096;2023-12-07T03:04:34;0.20;99.90
43043;DHT22;28667;50.758;6.096;2023-12-07T03:06:59;0.20;99.90
43043;DHT22;28667;50.758;6.096;2023-12-07T03:09:25;0.10;99.90
43043;DHT22;28667;50.758;6.096;2023-12-07T03:11:51;0.10;99.90
43043;DHT22;28667;50.758;6.096;2023-12-07T03:14:16;0.10;99.90
43043;DHT22;28667;50.758;6.096;2023-12-07T03:16:42;0.00;99.90
43043;DHT22;28667;50.758;6.096;2023-12-07T03:19:08;0.10;99.90
43043;DHT22;28667;50.758;6.096;2023-12-07T03:21:33;0.00;99.90
43043;DHT22;28667;50.758;6.096;2023-12-07T03:23:59;0.00;99.90
43043;DHT22;28667;50.758;6.096;2023-12-07T03:26:24;0.00;99.90
43043;DHT22;28667;50.758;6.096;2023-12-07T03:28:50;0.00;99.90
43043;DHT22;28667;50.758;6.096;2023-12-07T03:31:16;-0.10;99.90
43043;DHT22;28667;50.758;6.096;2023-12-07T03:33:42;-0.10;99.90
43043;DHT22;28667;50.758;6.096;2023-12-07T03:36:10;-0.10;99.90
43043;DHT22;28667;50.758;6.096;2023-12-07T03:38:36;-0.10;99.90
43043;DHT22;28667;50.758;6.096;2023-12-07T03:41:02;-0.20;99.90
43043;DHT22;28667;50.758;6.096;2023-12-07T03:43:27;-0.20;99.90
43043;DHT22;28667;50.758;6.096;2023-12-07T03:45:53;-0.20;99.90
43043;DHT22;28667;50.758;6.096;2023-12-07T03:48:19;-0.30;99.90
43043;DHT22;28667;50.758;6.096;2023-12-07T03:50:44;-0.30;99.90
43043;DHT22;28667;50.758;6.096;2023-12-07T03:53:10;-0.30;99.90
43043;DHT22;28667;50.758;6.096;2023-12-07T03:55:35;-0.30;99.90
43043;DHT22;28667;50.758;6.096;2023-12-07T03:58:02;-0.30;99.90
43043;DHT22;28667;50.758;6.096;2023-12-07T04:00:28;-0.30;99.90
43043;DHT22;28667;50.758;6.096;2023-12-07T04:02:53;-0.30;99.90
43043;DHT22;28667;50.758;6.096;2023-12-07T04:05:19;-0.30;99.90
43043;DHT22;28667;50.758;6.096;2023-12-07T04:07:44;-0.40;99.90
43043;DHT22;28667;50.758;6.096;2023-12-07T04:10:10;-0.40;99.90
43043;DHT22;28667;50.758;6.096;2023-12-07T04:12:36;-0.40;99.90
43043;DHT22;28667;50.758;6.096;2023-12-07T04:15:02;-0.40;99.90
43043;DHT22;28667;50.758;6.096;2023-12-07T04:17:28;-0.40;99.90
43043;DHT22;28667;50.758;6.096;2023-12-07T04:19:53;-0.50;99.90
43043;DHT22;28667;50.758;6.096;2023-12-07T04:22:19;-0.50;99.90
43043;DHT22;28667;50.758;6.096;2023-12-07T04:24:45;-0.50;99.90
43043;DHT22;28667;50.758;6.096;2023-12-07T04:27:12;-0.50;99.90
43043;DHT22;28667;50.758;6.096;2023-12-07T04:29:37;-0.50;99.90
43043;DHT22;28667;50.758;6.096;2023-12-07T04:32:03;-0.50;99.90
43043;DHT22;28667;50.758;6.096;2023-12-07T04:34:29;-0.60;99.90
43043;DHT22;28667;50.758;6.096;2023-12-07T04:36:54;-0.60;99.90
43043;DHT22;28667;50.758;6.096;2023-12-07T04:39:20;-0.50;99.90
43043;DHT22;28667;50.758;6.096;2023-12-07T04:41:46;-0.50;99.90
43043;DHT22;28667;50.758;6.096;2023-12-07T04:44:11;-0.50;99.90
43043;DHT22;28667;50.758;6.096;2023-12-07T04:46:37;-0.50;99.90
43043;DHT22;28667;50.758;6.096;2023-12-07T04:49:03;-0.40;99.90
43043;DHT22;28667;50.758;6.096;2023-12-07T04:51:28;-0.40;99.90
43043;DHT22;28667;50.758;6.096;2023-12-07T04:53:54;-0.40;99.90
43043;DHT22;28667;50.758;6.096;2023-12-07T04:56:19;-0.30;99.90
43043;DHT22;28667;50.758;6.096;2023-12-07T04:58:45;-0.30;99.90
43043;DHT22;28667;50.758;6.096;2023-12-07T05:01:11;-0.30;99.90
43043;DHT22;28667;50.758;6.096;2023-12-07T05:03:36;-0.30;99.90
43043;DHT22;28667;50.758;6.096;2023-12-07T05:06:02;-0.30;99.90
43043;DHT22;28667;50.758;6.096;2023-12-07T05:08:28;-0.30;99.90
43043;DHT22;28667;50.758;6.096;2023-12-07T05:10:53;-0.30;99.90
43043;DHT22;28667;50.758;6.096;2023-12-07T05:13:19;-0.30;99.90
43043;DHT22;28667;50.758;6.096;2023-12-07T05:15:44;-0.30;99.90
43043;DHT22;28667;50.758;6.096;2023-12-07T05:18:12;-0.30;99.90
43043;DHT22;28667;50.758;6.096;2023-12-07T05:20:37;-0.40;99.90
43043;DHT22;28667;50.758;6.096;2023-12-07T05:23:04;-0.40;99.90
43043;DHT22;28667;50.758;6.096;2023-12-07T05:25:31;-0.40;99.90
43043;DHT22;28667;50.758;6.096;2023-12-07T05:27:57;-0.40;99.90
43043;DHT22;28667;50.758;6.096;2023-12-07T05:30:23;-0.40;99.90
43043;DHT22;28667;50.758;6.096;2023-12-07T05:32:49;-0.40;99.90
43043;DHT22;28667;50.758;6.096;2023-12-07T05:35:15;-0.40;99.90
43043;DHT22;28667;50.758;6.096;2023-12-07T05:37:41;-0.50;99.90
43043;DHT22;28667;50.758;6.096;2023-12-07T05:40:07;-0.50;99.90
43043;DHT22;28667;50.758;6.096;2023-12-07T05:42:33;-0.50;99.90
43043;DHT22;28667;50.758;6.096;2023-12-07T05:44:59;-0.50;99.90
43043;DHT22;28667;50.758;6.096;2023-12-07T05:47:25;-0.50;99.90
43043;DHT22;28667;50.758;6.096;2023-12-07T05:49:51;-0.50;99.90
43043;DHT22;28667;50.758;6.096;2023-12-07T05:52:17;-0.50;99.90
43043;DHT22;28667;50.758;6.096;2023-12-07T05:54:42;-0.60;99.90
43043;DHT22;28667;50.758;6.096;2023-12-07T05:57:08;-0.60;99.90
43043;DHT22;28667;50.758;6.096;2023-12-07T05:59:37;-0.60;99.90
43043;DHT22;28667;50.758;6.096;2023-12-07T06:02:04;-0.60;99.90
43043;DHT22;28667;50.758;6.096;2023-12-07T06:04:30;-0.60;99.90
43043;DHT22;28667;50.758;6.096;2023-12-07T06:06:55;-0.60;99.90
43043;DHT22;28667;50.758;6.096;2023-12-07T06:09:21;-0.60;99.90
43043;DHT22;28667;50.758;6.096;2023-12-07T06:11:48;-0.60;99.90
43043;DHT22;28667;50.758;6.096;2023-12-07T06:14:13;-0.60;99.90
43043;DHT22;28667;50.758;6.096;2023-12-07T06:16:39;-0.70;99.90
43043;DHT22;28667;50.758;6.096;2023-12-07T06:19:04;-0.70;99.90
43043;DHT22;28667;50.758;6.096;2023-12-07T06:21:30;-0.70;99.90
43043;DHT22;28667;50.758;6.096;2023-12-07T06:23:56;-0.70;99.90
43043;DHT22;28667;50.758;6.096;2023-12-07T06:26:22;-0.80;99.90
43043;DHT22;28667;50.758;6.096;2023-12-07T06:28:48;-0.80;99.90
43043;DHT22;28667;50.758;6.096;2023-12-07T06:31:13;-0.80;99.90
43043;DHT22;28667;50.758;6.096;2023-12-07T06:33:45;-0.80;99.90
43043;DHT22;28667;50.758;6.096;2023-12-07T06:36:11;-0.80;99.90
43043;DHT22;28667;50.758;6.096;2023-12-07T06:38:36;-0.80;99.90
43043;DHT22;28667;50.758;6.096;2023-12-07T06:41:03;-0.80;99.90
43043;DHT22;28667;50.758;6.096;2023-12-07T06:43:29;-0.80;99.90
43043;DHT22;28667;50.758;6.096;2023-12-07T06:45:55;-0.90;99.90
43043;DHT22;28667;50.758;6.096;2023-12-07T06:48:20;-0.80;99.90
43043;DHT22;28667;50.758;6.096;2023-12-07T06:50:46;-0.80;99.90
43043;DHT22;28667;50.758;6.096;2023-12-07T06:53:11;-0.80;99.90
43043;DHT22;28667;50.758;6.096;2023-12-07T06:55:37;-0.80;99.90
43043;DHT22;28667;50.758;6.096;2023-12-07T06:58:03;-0.80;99.90
43043;DHT22;28667;50.758;6.096;2023-12-07T07:00:28;-0.80;99.90
43043;DHT22;28667;50.758;6.096;2023-12-07T07:02:54;-0.70;99.90
43043;DHT22;28667;50.758;6.096;2023-12-07T07:05:19;-0.70;99.90
43043;DHT22;28667;50.758;6.096;2023-12-07T07:07:45;-0.60;99.90
43043;DHT22;28667;50.758;6.096;2023-12-07T07:10:10;-0.60;99.90
43043;DHT22;28667;50.758;6.096;2023-12-07T07:12:38;-0.60;99.90
43043;DHT22;28667;50.758;6.096;2023-12-07T07:15:03;-0.60;99.90
43043;DHT22;28667;50.758;6.096;2023-12-07T07:17:29;-0.60;99.90
43043;DHT22;28667;50.758;6.096;2023-12-07T07:19:55;-0.60;99.90
43043;DHT22;28667;50.758;6.096;2023-12-07T07:22:21;-0.60;99.90
43043;DHT22;28667;50.758;6.096;2023-12-07T07:24:47;-0.60;99.90
43043;DHT22;28667;50.758;6.096;2023-12-07T07:27:12;-0.60;99.90
43043;DHT22;28667;50.758;6.096;2023-12-07T07:29:38;-0.60;99.90
43043;DHT22;28667;50.758;6.096;2023-12-07T07:32:04;-0.60;99.90
43043;DHT22;28667;50.758;6.096;2023-12-07T07:34:30;-0.50;99.90
43043;DHT22;28667;50.758;6.096;2023-12-07T07:36:55;-0.50;99.90
43043;DHT22;28667;50.758;6.096;2023-12-07T07:39:21;-0.50;99.90
43043;DHT22;28667;50.758;6.096;2023-12-07T07:41:47;-0.50;99.90
43043;DHT22;28667;50.758;6.096;2023-12-07T07:44:12;-0.50;99.90
43043;DHT22;28667;50.758;6.096;2023-12-07T07:46:40;-0.50;99.90
43043;DHT22;28667;50.758;6.096;2023-12-07T07:49:05;-0.50;99.90
43043;DHT22;28667;50.758;6.096;2023-12-07T07:51:31;-0.50;99.90
43043;DHT22;28667;50.758;6.096;2023-12-07T07:53:58;-0.40;99.90
43043;DHT22;28667;50.758;6.096;2023-12-07T07:56:24;-0.40;99.90
43043;DHT22;28667;50.758;6.096;2023-12-07T07:58:49;-0.30;99.90
43043;DHT22;28667;50.758;6.096;2023-12-07T08:01:15;-0.30;99.90
43043;DHT22;28667;50.758;6.096;2023-12-07T08:03:41;-0.30;99.90
43043;DHT22;28667;50.758;6.096;2023-12-07T08:06:07;-0.30;99.90
43043;DHT22;28667;50.758;6.096;2023-12-07T08:08:32;-0.30;99.90
43043;DHT22;28667;50.758;6.096;2023-12-07T08:10:58;-0.30;99.90
43043;DHT22;28667;50.758;6.096;2023-12-07T08:13:23;-0.20;99.90
43043;DHT22;28667;50.758;6.096;2023-12-07T08:15:49;-0.10;99.90
43043;DHT22;28667;50.758;6.096;2023-12-07T08:18:15;-0.10;99.90
43043;DHT22;28667;50.758;6.096;2023-12-07T08:20:40;-0.10;99.90
43043;DHT22;28667;50.758;6.096;2023-12-07T08:23:06;-0.10;99.90
43043;DHT22;28667;50.758;6.096;2023-12-07T08:25:31;-0.10;99.90
43043;DHT22;28667;50.758;6.096;2023-12-07T08:27:57;0.00;99.90
43043;DHT22;28667;50.758;6.096;2023-12-07T08:30:23;0.00;99.90
43043;DHT22;28667;50.758;6.096;2023-12-07T08:32:48;0.00;99.90
43043;DHT22;28667;50.758;6.096;2023-12-07T08:35:14;0.00;99.90
43043;DHT22;28667;50.758;6.096;2023-12-07T08:37:39;0.10;99.90
43043;DHT22;28667;50.758;6.096;2023-12-07T08:40:05;0.10;99.90
43043;DHT22;28667;50.758;6.096;2023-12-07T08:42:31;0.10;99.90
43043;DHT22;28667;50.758;6.096;2023-12-07T08:44:57;0.10;99.90
43043;DHT22;28667;50.758;6.096;2023-12-07T08:47:23;0.00;99.90
43043;DHT22;28667;50.758;6.096;2023-12-07T08:49:49;0.10;99.90
43043;DHT22;28667;50.758;6.096;2023-12-07T08:52:16;0.10;99.90
43043;DHT22;28667;50.758;6.096;2023-12-07T08:54:43;0.10;99.90
43043;DHT22;28667;50.758;6.096;2023-12-07T08:57:08;0.10;99.90
43043;DHT22;28667;50.758;6.096;2023-12-07T08:59:34;0.10;99.90
43043;DHT22;28667;50.758;6.096;2023-12-07T09:02:00;0.20;99.90
43043;DHT22;28667;50.758;6.096;2023-12-07T09:04:26;0.20;99.90
43043;DHT22;28667;50.758;6.096;2023-12-07T09:06:52;0.20;99.90
43043;DHT22;28667;50.758;6.096;2023-12-07T09:09:18;0.20;99.90
43043;DHT22;28667;50.758;6.096;2023-12-07T09:11:44;0.20;99.90
43043;DHT22;28667;50.758;6.096;2023-12-07T09:14:09;0.20;99.90
43043;DHT22;28667;50.758;6.096;2023-12-07T09:16:43;0.20;99.90
43043;DHT22;28667;50.758;6.096;2023-12-07T09:19:10;0.30;99.90
43043;DHT22;28667;50.758;6.096;2023-12-07T09:21:36;0.30;99.90
43043;DHT22;28667;50.758;6.096;2023-12-07T09:24:01;0.40;99.90
43043;DHT22;28667;50.758;6.096;2023-12-07T09:26:27;0.40;99.90
43043;DHT22;28667;50.758;6.096;2023-12-07T09:28:53;0.50;99.90
43043;DHT22;28667;50.758;6.096;2023-12-07T09:31:18;0.50;99.90
43043;DHT22;28667;50.758;6.096;2023-12-07T09:33:44;0.60;99.90
43043;DHT22;28667;50.758;6.096;2023-12-07T09:36:10;0.60;99.90
43043;DHT22;28667;50.758;6.096;2023-12-07T09:38:37;0.70;99.90
43043;DHT22;28667;50.758;6.096;2023-12-07T09:41:03;0.80;99.90
43043;DHT22;28667;50.758;6.096;2023-12-07T09:43:28;0.80;99.90
43043;DHT22;28667;50.758;6.096;2023-12-07T09:45:54;0.90;99.90
43043;DHT22;28667;50.758;6.096;2023-12-07T09:48:20;0.90;99.90
43043;DHT22;28667;50.758;6.096;2023-12-07T09:50:46;1.00;99.90
43043;DHT22;28667;50.758;6.096;2023-12-07T09:53:13;1.10;99.90
43043;DHT22;28667;50.758;6.096;2023-12-07T09:55:38;1.10;99.90
43043;DHT22;28667;50.758;6.096;2023-12-07T09:58:05;1.10;99.90
43043;DHT22;28667;50.758;6.096;2023-12-07T10:00:31;1.20;99.90
43043;DHT22;28667;50.758;6.096;2023-12-07T10:02:56;1.20;99.90
43043;DHT22;28667;50.758;6.096;2023-12-07T10:05:22;1.20;99.90
43043;DHT22;28667;50.758;6.096;2023-12-07T10:07:49;1.30;99.90
43043;DHT22;28667;50.758;6.096;2023-12-07T10:10:15;1.30;99.90
43043;DHT22;28667;50.758;6.096;2023-12-07T10:12:55;1.40;99.90
43043;DHT22;28667;50.758;6.096;2023-12-07T10:15:21;1.40;99.90
43043;DHT22;28667;50.758;6.096;2023-12-07T10:20:14;1.60;99.90
43043;DHT22;28667;50.758;6.096;2023-12-07T10:22:40;1.70;99.90
43043;DHT22;28667;50.758;6.096;2023-12-07T10:25:07;1.70;99.90
43043;DHT22;28667;50.758;6.096;2023-12-07T10:27:32;1.80;99.90
43043;DHT22;28667;50.758;6.096;2023-12-07T10:29:58;1.90;99.90
43043;DHT22;28667;50.758;6.096;2023-12-07T10:32:25;1.90;99.90
43043;DHT22;28667;50.758;6.096;2023-12-07T10:34:50;2.00;99.90
43043;DHT22;28667;50.758;6.096;2023-12-07T10:37:16;2.00;99.90
43043;DHT22;28667;50.758;6.096;2023-12-07T10:39:42;2.10;99.90
43043;DHT22;28667;50.758;6.096;2023-12-07T10:42:09;2.10;99.90
43043;DHT22;28667;50.758;6.096;2023-12-07T10:44:35;2.20;99.90
43043;DHT22;28667;50.758;6.096;2023-12-07T10:47:04;2.20;99.90
43043;DHT22;28667;50.758;6.096;2023-12-07T10:49:30;2.30;99.90
43043;DHT22;28667;50.758;6.096;2023-12-07T10:52:00;2.30;99.90
43043;DHT22;28667;50.758;6.096;2023-12-07T10:55:12;2.40;99.90
43043;DHT22;28667;50.758;6.096;2023-12-07T10:57:17;2.40;99.90
43043;DHT22;28667;50.758;6.096;2023-12-07T10:59:45;2.40;99.90
43043;DHT22;28667;50.758;6.096;2023-12-07T11:02:12;2.50;99.90
43043;DHT22;28667;50.758;6.096;2023-12-07T11:04:38;2.50;99.90
43043;DHT22;28667;50.758;6.096;2023-12-07T11:07:06;2.50;99.90
43043;DHT22;28667;50.758;6.096;2023-12-07T11:09:33;2.50;99.90
43043;DHT22;28667;50.758;6.096;2023-12-07T11:12:20;2.50;99.90
43043;DHT22;28667;50.758;6.096;2023-12-07T11:14:48;2.50;99.90
43043;DHT22;28667;50.758;6.096;2023-12-07T11:17:15;2.50;99.90
43043;DHT22;28667;50.758;6.096;2023-12-07T11:22:09;2.60;99.90
43043;DHT22;28667;50.758;6.096;2023-12-07T11:24:35;2.60;99.90
43043;DHT22;28667;50.758;6.096;2023-12-07T11:27:01;2.60;99.90
43043;DHT22;28667;50.758;6.096;2023-12-07T11:29:30;2.60;99.90
43043;DHT22;28667;50.758;6.096;2023-12-07T11:31:56;2.70;99.90
43043;DHT22;28667;50.758;6.096;2023-12-07T11:34:35;2.60;99.90
43043;DHT22;28667;50.758;6.096;2023-12-07T11:37:04;2.70;99.90
43043;DHT22;28667;50.758;6.096;2023-12-07T11:39:36;2.70;99.90
43043;DHT22;28667;50.758;6.096;2023-12-07T11:42:05;2.70;99.90
43043;DHT22;28667;50.758;6.096;2023-12-07T11:44:36;2.80;99.90
43043;DHT22;28667;50.758;6.096;2023-12-07T11:47:02;2.90;99.90
43043;DHT22;28667;50.758;6.096;2023-12-07T11:49:28;2.90;99.90
43043;DHT22;28667;50.758;6.096;2023-12-07T11:51:54;3.00;99.90
43043;DHT22;28667;50.758;6.096;2023-12-07T11:54:19;3.10;99.90
43043;DHT22;28667;50.758;6.096;2023-12-07T11:56:51;3.10;99.90
43043;DHT22;28667;50.758;6.096;2023-12-07T11:59:17;3.20;99.90
43043;DHT22;28667;50.758;6.096;2023-12-07T12:01:46;3.30;99.90
43043;DHT22;28667;50.758;6.096;2023-12-07T12:04:11;3.30;99.90
43043;DHT22;28667;50.758;6.096;2023-12-07T12:06:37;3.30;99.90
43043;DHT22;28667;50.758;6.096;2023-12-07T12:09:03;3.40;99.90
43043;DHT22;28667;50.758;6.096;2023-12-07T12:11:28;3.40;99.90
43043;DHT22;28667;50.758;6.096;2023-12-07T12:13:55;3.40;99.90
43043;DHT22;28667;50.758;6.096;2023-12-07T12:16:20;3.40;99.90
43043;DHT22;28667;50.758;6.096;2023-12-07T12:18:46;3.40;99.90
43043;DHT22;28667;50.758;6.096;2023-12-07T12:21:12;3.40;99.90
43043;DHT22;28667;50.758;6.096;2023-12-07T12:23:37;3.30;99.90
43043;DHT22;28667;50.758;6.096;2023-12-07T12:26:05;3.40;99.90
43043;DHT22;28667;50.758;6.096;2023-12-07T12:28:31;3.30;99.90
43043;DHT22;28667;50.758;6.096;2023-12-07T12:30:57;3.30;99.90
43043;DHT22;28667;50.758;6.096;2023-12-07T12:33:23;3.30;99.90
43043;DHT22;28667;50.758;6.096;2023-12-07T12:36:00;3.30;99.90
43043;DHT22;28667;50.758;6.096;2023-12-07T12:38:26;3.30;99.90
43043;DHT22;28667;50.758;6.096;2023-12-07T12:40:52;3.40;99.90
43043;DHT22;28667;50.758;6.096;2023-12-07T12:43:19;3.30;99.90
43043;DHT22;28667;50.758;6.096;2023-12-07T12:45:44;3.40;99.90
43043;DHT22;28667;50.758;6.096;2023-12-07T12:48:11;3.40;99.90
43043;DHT22;28667;50.758;6.096;2023-12-07T12:53:07;3.50;99.90
43043;DHT22;28667;50.758;6.096;2023-12-07T12:55:33;3.50;99.90
43043;DHT22;28667;50.758;6.096;2023-12-07T12:57:59;3.50;99.90
43043;DHT22;28667;50.758;6.096;2023-12-07T13:00:25;3.60;99.90
43043;DHT22;28667;50.758;6.096;2023-12-07T13:02:51;3.50;99.90
43043;DHT22;28667;50.758;6.096;2023-12-07T13:05:16;3.50;99.90
43043;DHT22;28667;50.758;6.096;2023-12-07T13:07:43;3.50;99.90
43043;DHT22;28667;50.758;6.096;2023-12-07T13:10:09;3.50;99.90
43043;DHT22;28667;50.758;6.096;2023-12-07T13:12:35;3.50;99.90
43043;DHT22;28667;50.758;6.096;2023-12-07T13:15:00;3.50;99.90
43043;DHT22;28667;50.758;6.096;2023-12-07T13:17:26;3.40;99.90
43043;DHT22;28667;50.758;6.096;2023-12-07T13:19:52;3.40;99.90
43043;DHT22;28667;50.758;6.096;2023-12-07T13:22:17;3.40;99.90
43043;DHT22;28667;50.758;6.096;2023-12-07T13:24:45;3.40;99.90
43043;DHT22;28667;50.758;6.096;2023-12-07T13:27:11;3.30;99.90
43043;DHT22;28667;50.758;6.096;2023-12-07T13:29:36;3.30;99.90
43043;DHT22;28667;50.758;6.096;2023-12-07T13:32:02;3.30;99.90
43043;DHT22;28667;50.758;6.096;2023-12-07T13:34:28;3.30;99.90
43043;DHT22;28667;50.758;6.096;2023-12-07T13:36:53;3.20;99.90
43043;DHT22;28667;50.758;6.096;2023-12-07T13:39:19;3.20;99.90
43043;DHT22;28667;50.758;6.096;2023-12-07T13:41:47;3.20;99.90
43043;DHT22;28667;50.758;6.096;2023-12-07T13:44:15;3.20;99.90
43043;DHT22;28667;50.758;6.096;2023-12-07T13:46:42;3.10;99.90
43043;DHT22;28667;50.758;6.096;2023-12-07T13:49:08;3.10;99.90
43043;DHT22;28667;50.758;6.096;2023-12-07T13:51:33;3.10;99.90
43043;DHT22;28667;50.758;6.096;2023-12-07T13:53:59;3.10;99.90
43043;DHT22;28667;50.758;6.096;2023-12-07T13:56:25;3.10;99.90
43043;DHT22;28667;50.758;6.096;2023-12-07T13:58:50;3.00;99.90
43043;DHT22;28667;50.758;6.096;2023-12-07T14:01:17;3.00;99.90
43043;DHT22;28667;50.758;6.096;2023-12-07T14:03:42;3.00;99.90
43043;DHT22;28667;50.758;6.096;2023-12-07T14:06:08;2.90;99.90
43043;DHT22;28667;50.758;6.096;2023-12-07T14:08:34;2.90;99.90
43043;DHT22;28667;50.758;6.096;2023-12-07T14:11:00;2.90;99.90
43043;DHT22;28667;50.758;6.096;2023-12-07T14:13:25;2.90;99.90
43043;DHT22;28667;50.758;6.096;2023-12-07T14:15:51;2.90;99.90
43043;DHT22;28667;50.758;6.096;2023-12-07T14:18:16;2.90;99.90
43043;DHT22;28667;50.758;6.096;2023-12-07T14:20:42;2.90;99.90
43043;DHT22;28667;50.758;6.096;2023-12-07T14:23:08;2.80;99.90
43043;DHT22;28667;50.758;6.096;2023-12-07T14:25:33;2.80;99.90
43043;DHT22;28667;50.758;6.096;2023-12-07T14:27:59;2.80;99.90
43043;DHT22;28667;50.758;6.096;2023-12-07T14:30:25;2.80;99.90
43043;DHT22;28667;50.758;6.096;2023-12-07T14:32:50;2.80;99.90
43043;DHT22;28667;50.758;6.096;2023-12-07T14:35:19;2.80;99.90
43043;DHT22;28667;50.758;6.096;2023-12-07T14:37:45;2.80;99.90
43043;DHT22;28667;50.758;6.096;2023-12-07T14:40:11;2.70;99.90
43043;DHT22;28667;50.758;6.096;2023-12-07T14:42:37;2.70;99.90
43043;DHT22;28667;50.758;6.096;2023-12-07T14:45:03;2.70;99.90
43043;DHT22;28667;50.758;6.096;2023-12-07T14:47:30;2.70;99.90
43043;DHT22;28667;50.758;6.096;2023-12-07T14:49:55;2.60;99.90
43043;DHT22;28667;50.758;6.096;2023-12-07T14:52:21;2.60;99.90
43043;DHT22;28667;50.758;6.096;2023-12-07T14:54:46;2.60;99.90
43043;DHT22;28667;50.758;6.096;2023-12-07T14:57:13;2.50;99.90
43043;DHT22;28667;50.758;6.096;2023-12-07T14:59:38;2.50;99.90
43043;DHT22;28667;50.758;6.096;2023-12-07T15:02:04;2.40;99.90
43043;DHT22;28667;50.758;6.096;2023-12-07T15:04:30;2.40;99.90
43043;DHT22;28667;50.758;6.096;2023-12-07T15:06:56;2.40;99.90
43043;DHT22;28667;50.758;6.096;2023-12-07T15:09:22;2.40;99.90
43043;DHT22;28667;50.758;6.096;2023-12-07T15:11:47;2.30;99.90
43043;DHT22;28667;50.758;6.096;2023-12-07T15:14:13;2.30;99.90
43043;DHT22;28667;50.758;6.096;2023-12-07T15:16:38;2.30;99.90
43043;DHT22;28667;50.758;6.096;2023-12-07T15:19:04;2.20;99.90
43043;DHT22;28667;50.758;6.096;2023-12-07T15:21:30;2.20;99.90
43043;DHT22;28667;50.758;6.096;2023-12-07T15:23:56;2.10;99.90
43043;DHT22;28667;50.758;6.096;2023-12-07T15:26:21;2.10;99.90
43043;DHT22;28667;50.758;6.096;2023-12-07T15:28:47;2.10;99.90
43043;DHT22;28667;50.758;6.096;2023-12-07T15:31:13;2.10;99.90
43043;DHT22;28667;50.758;6.096;2023-12-07T15:33:38;2.00;99.90
43043;DHT22;28667;50.758;6.096;2023-12-07T15:36:04;2.00;99.90
43043;DHT22;28667;50.758;6.096;2023-12-07T15:38:30;1.90;99.90
43043;DHT22;28667;50.758;6.096;2023-12-07T15:40:56;1.80;99.90
43043;DHT22;28667;50.758;6.096;2023-12-07T15:43:25;1.80;99.90